Terminal Aerodrome Forecast
Issued by NWS

Home | Current Version | Previous Version | Graphics & Text | Print | Product List | Glossary On
Versions: 1 2 3 4 5 6 7 8 9 10 11 12 13 14 15 16 17 18 19
099
FTUS43 KLSX 270414 AAA
TAFSUS
TAF AMD
KSUS 270414Z 2704/2724 10005KT P6SM BKN009
     FM270900 10007KT P6SM VCTS OVC020CB
      TEMPO 2710/2713 3SM TSRA OVC012CB
     FM271300 11010KT 6SM -SHRA OVC020
     FM271700 14012KT P6SM -SHRA OVC035
     FM271900 17013KT P6SM BKN045=

USA.gov is the U.S. government's official web portal to all federal, state and local government web resources and services.